Time;durP1;ratioP1;P1;durP2;ratioP2;P2;SDS_P1;SDS_P2;PMS_P1;PMS_P2;Temp;Humidity;BMP_temperature;BMP_pressure;BME280_temperature;BME280_humidity;BME280_pressure;Samples;Min_cycle;Max_cycle;Signal;HPM_P1;HPM_P2
2021/08/01 06:33:05;;;;;;;12.07;3.60;;;17.40;99.90;;;;;;11987749;28;20413;-62
2021/08/01 06:38:52;;;;;;;8.45;2.97;;;17.90;99.90;;;;;;11935017;28;20041;-61
2021/08/01 06:44:39;;;;;;;9.93;3.28;;;18.80;99.90;;;;;;11937131;28;20379;-61
2021/08/01 06:50:28;;;;;;;11.40;3.17;;;19.20;99.90;;;;;;11941148;28;20060;-62
2021/08/01 07:03:06;;;;;;;9.30;2.42;;;19.50;99.90;;;;;;12049896;27;20432;-60
2021/08/01 07:08:55;;;;;;;12.85;2.80;;;19.50;99.90;;;;;;12018711;28;20413;-60
2021/08/01 07:14:42;;;;;;;8.30;2.45;;;19.60;99.90;;;;;;12048327;28;20041;-61
2021/08/01 07:20:29;;;;;;;12.50;2.85;;;19.90;99.90;;;;;;12028564;27;20146;-61
2021/08/01 07:26:20;;;;;;;7.38;2.10;;;19.90;99.90;;;;;;12084801;27;20036;-62
2021/08/01 07:32:07;;;;;;;6.07;2.17;;;20.00;99.90;;;;;;12064075;28;20079;-62
2021/08/01 07:37:54;;;;;;;7.47;2.20;;;19.90;99.90;;;;;;12053473;28;20044;-60
2021/08/01 07:43:43;;;;;;;7.65;2.30;;;20.10;99.90;;;;;;12079944;28;20414;-61
2021/08/01 07:49:30;;;;;;;11.25;2.72;;;20.40;99.90;;;;;;12076725;28;20416;-62
2021/08/01 07:55:17;;;;;;;8.00;2.38;;;20.70;99.90;;;;;;12041024;27;20044;-63
2021/08/01 08:01:06;;;;;;;7.95;2.40;;;21.00;99.90;;;;;;12062694;28;20056;-63
2021/08/01 08:06:52;;;;;;;6.97;2.10;;;21.00;99.90;;;;;;12030265;28;20069;-63
2021/08/01 08:12:40;;;;;;;5.60;1.92;;;21.10;99.90;;;;;;12024342;28;20053;-63
2021/08/01 08:18:31;;;;;;;6.57;2.50;;;21.10;99.90;;;;;;12002097;27;20167;-62
2021/08/01 08:24:18;;;;;;;6.60;2.33;;;21.10;99.90;;;;;;12031856;28;20047;-63
2021/08/01 08:30:07;;;;;;;7.53;1.90;;;21.10;99.90;;;;;;12024248;28;20056;-64
2021/08/01 08:35:55;;;;;;;7.05;2.25;;;21.00;99.90;;;;;;12027638;28;20752;-64
2021/08/01 08:41:42;;;;;;;7.53;2.38;;;20.80;99.80;;;;;;12040296;28;20047;-63
2021/08/01 08:47:36;;;;;;;12.15;2.67;;;20.60;99.90;;;;;;11983270;28;20057;-63
2021/08/01 08:53:27;;;;;;;6.80;2.08;;;20.50;99.60;;;;;;11980571;28;20075;-63
2021/08/01 08:59:18;;;;;;;10.20;2.15;;;20.40;99.00;;;;;;12002302;28;20063;-63
2021/08/01 09:05:07;;;;;;;6.88;2.13;;;20.50;98.50;;;;;;11976317;28;20128;-62
2021/08/01 09:10:56;;;;;;;5.15;1.70;;;20.60;99.00;;;;;;11972303;28;20048;-63
2021/08/01 09:16:44;;;;;;;4.20;1.70;;;20.50;98.70;;;;;;12032733;28;20516;-62
2021/08/01 09:22:31;;;;;;;5.45;2.00;;;20.50;98.90;;;;;;12024900;28;20451;-63
2021/08/01 09:28:21;;;;;;;7.03;2.10;;;20.70;99.20;;;;;;12008701;28;20053;-62
2021/08/01 09:34:22;;;;;;;6.10;2.08;;;20.80;99.00;;;;;;12059685;28;20041;-62
2021/08/01 09:40:11;;;;;;;5.95;1.90;;;20.90;98.90;;;;;;12058037;28;20048;-63
2021/08/01 09:46:00;;;;;;;4.88;2.22;;;21.10;98.90;;;;;;12060005;28;20041;-62
2021/08/01 09:51:52;;;;;;;8.45;2.20;;;21.30;98.90;;;;;;12029866;28;20044;-62
2021/08/01 09:57:48;;;;;;;7.72;2.10;;;21.30;97.60;;;;;;12020384;28;20064;-62
2021/08/01 10:03:37;;;;;;;6.47;1.90;;;21.20;98.20;;;;;;12028811;28;20546;-62
2021/08/01 10:09:26;;;;;;;6.97;1.50;;;21.20;97.40;;;;;;11992619;28;20106;-62
2021/08/01 10:15:13;;;;;;;5.13;1.52;;;21.40;95.90;;;;;;11977134;28;21055;-63
2021/08/01 10:21:02;;;;;;;4.00;1.30;;;20.80;95.40;;;;;;12015677;28;20044;-62
2021/08/01 10:26:52;;;;;;;4.88;1.80;;;20.80;96.20;;;;;;12025437;28;20052;-62
2021/08/01 10:32:43;;;;;;;2.63;1.27;;;21.20;96.10;;;;;;12028246;28;20485;-62
2021/08/01 10:38:35;;;;;;;1.73;1.20;;;21.80;94.50;;;;;;12027597;28;20049;-62
2021/08/01 10:44:23;;;;;;;3.83;1.20;;;21.80;93.60;;;;;;12029837;28;20052;-63
2021/08/01 10:50:15;;;;;;;3.22;1.30;;;22.10;92.80;;;;;;12026603;28;20060;-63
2021/08/01 10:56:33;;;;;;;1.70;1.00;;;22.20;91.60;;;;;;12031429;28;20041;-62
2021/08/01 11:02:22;;;;;;;1.77;0.82;;;22.20;91.00;;;;;;12029093;28;20136;-63
2021/08/01 11:08:10;;;;;;;1.17;0.70;;;22.60;88.90;;;;;;12027622;28;21973;-62
2021/08/01 11:13:58;;;;;;;1.70;0.90;;;23.00;84.80;;;;;;12046209;28;20053;-63
2021/08/01 11:19:45;;;;;;;1.20;0.70;;;23.20;86.50;;;;;;12032700;28;20288;-63
2021/08/01 11:25:33;;;;;;;1.88;0.80;;;23.50;83.50;;;;;;12023835;28;20425;-63
2021/08/01 11:31:25;;;;;;;2.90;0.88;;;23.60;82.60;;;;;;12031367;28;20041;-63
2021/08/01 11:37:19;;;;;;;2.20;0.90;;;23.60;80.80;;;;;;12028565;28;20041;-63
2021/08/01 11:43:07;;;;;;;2.17;0.80;;;23.40;80.90;;;;;;12024376;28;20033;-65
2021/08/01 11:48:59;;;;;;;1.35;0.70;;;23.20;81.40;;;;;;12037274;28;20060;-64
2021/08/01 12:00:52;;;;;;;1.50;0.88;;;23.00;80.60;;;;;;12041706;28;20404;-64
2021/08/01 12:06:42;;;;;;;1.20;0.90;;;23.40;81.40;;;;;;12038779;28;20094;-63
2021/08/01 12:12:29;;;;;;;3.25;1.00;;;23.80;78.30;;;;;;12037894;28;20048;-63
2021/08/01 12:18:25;;;;;;;3.45;1.30;;;24.00;79.50;;;;;;12042262;28;20107;-64
2021/08/01 12:24:38;;;;;;;1.60;1.13;;;24.00;76.50;;;;;;12038234;28;20528;-64
2021/08/01 12:30:25;;;;;;;2.33;1.03;;;23.80;78.80;;;;;;12039594;28;20048;-65
2021/08/01 12:36:32;;;;;;;4.15;1.25;;;23.60;79.90;;;;;;12024264;27;20548;-62
2021/08/01 12:42:23;;;;;;;3.33;1.30;;;23.50;79.40;;;;;;12007435;28;20041;-64
2021/08/01 12:48:13;;;;;;;4.60;1.23;;;23.80;79.80;;;;;;12033725;28;20220;-64
2021/08/01 12:53:59;;;;;;;2.80;1.20;;;24.00;78.80;;;;;;12034034;28;20049;-63
2021/08/01 13:00:11;;;;;;;2.67;1.13;;;23.90;78.60;;;;;;12031368;28;20044;-63
2021/08/01 13:06:01;;;;;;;4.88;1.00;;;24.00;77.10;;;;;;11994174;27;20060;-64
2021/08/01 13:11:48;;;;;;;2.45;0.82;;;23.80;77.70;;;;;;12012471;28;20104;-63
2021/08/01 13:17:43;;;;;;;2.38;1.15;;;23.80;77.70;;;;;;11990300;28;20529;-63
2021/08/01 13:23:33;;;;;;;5.50;1.08;;;23.90;77.70;;;;;;11987607;28;20099;-64
2021/08/01 13:29:22;;;;;;;3.38;1.40;;;23.50;79.30;;;;;;11999951;27;20135;-63
2021/08/01 13:35:20;;;;;;;1.02;0.82;;;23.50;79.40;;;;;;12034396;28;20428;-63
2021/08/01 13:41:19;;;;;;;4.43;1.25;;;23.50;80.70;;;;;;12032311;28;20129;-63
2021/08/01 13:47:15;;;;;;;1.60;0.95;;;23.60;80.10;;;;;;12036473;28;20052;-64
2021/08/01 13:53:03;;;;;;;2.67;1.10;;;23.70;79.90;;;;;;12031720;28;20056;-63
2021/08/01 13:58:50;;;;;;;6.70;1.10;;;23.90;80.10;;;;;;12032369;28;20402;-64
2021/08/01 14:04:38;;;;;;;1.27;0.85;;;24.20;77.20;;;;;;12035494;28;20440;-65
2021/08/01 14:10:26;;;;;;;1.88;1.02;;;24.60;77.30;;;;;;12032333;28;20447;-65
2021/08/01 14:16:13;;;;;;;3.20;0.90;;;24.60;76.00;;;;;;12031985;28;20127;-64
2021/08/01 14:22:00;;;;;;;0.80;0.77;;;24.30;75.50;;;;;;12035530;28;21145;-64
2021/08/01 14:27:48;;;;;;;1.17;0.85;;;24.60;74.50;;;;;;12033259;28;20408;-65
2021/08/01 14:33:37;;;;;;;1.00;0.70;;;24.60;74.70;;;;;;12036544;28;20789;-63
2021/08/01 14:39:24;;;;;;;1.58;0.85;;;24.60;73.70;;;;;;11995943;28;20460;-64
2021/08/01 14:45:13;;;;;;;1.13;0.90;;;25.40;69.90;;;;;;11998802;28;20456;-64
2021/08/01 14:51:01;;;;;;;4.20;0.75;;;25.70;68.90;;;;;;12021014;28;20056;-64
2021/08/01 14:57:06;;;;;;;2.28;0.90;;;25.60;67.50;;;;;;12019351;28;20132;-63
2021/08/01 15:03:38;;;;;;;2.90;1.13;;;25.20;70.50;;;;;;12023636;28;20041;-63
2021/08/01 15:09:31;;;;;;;4.43;0.90;;;24.60;72.90;;;;;;11886278;28;20057;-63
2021/08/01 15:15:19;;;;;;;;;;;24.90;73.70;;;;;;11886278;28;20049;-63
2021/08/01 15:21:06;;;;;;;3.20;1.02;;;25.30;70.70;;;;;;11912067;28;19928;-63
2021/08/01 15:32:57;;;;;;;0.60;0.60;;;25.20;71.50;;;;;;11913487;28;20053;-64
2021/08/01 15:38:48;;;;;;;1.05;0.88;;;25.50;65.80;;;;;;11896759;28;20041;-64
2021/08/01 15:44:38;;;;;;;2.42;0.73;;;25.70;66.70;;;;;;12012258;28;20052;-64
2021/08/01 15:50:26;;;;;;;1.67;0.88;;;25.60;66.30;;;;;;12038567;28;20045;-64
2021/08/01 15:56:17;;;;;;;1.02;0.93;;;25.10;66.80;;;;;;12002185;28;20539;-64
2021/08/01 16:02:15;;;;;;;2.33;0.70;;;25.00;68.50;;;;;;12055904;28;20051;-65
2021/08/01 16:08:08;;;;;;;1.63;0.80;;;26.90;66.00;;;;;;12069736;28;20055;-64
2021/08/01 16:13:57;;;;;;;1.93;1.00;;;29.50;60.10;;;;;;12068503;28;20040;-64
2021/08/01 16:19:46;;;;;;;1.92;0.82;;;30.30;55.80;;;;;;12070722;28;20053;-64
2021/08/01 16:25:33;;;;;;;1.40;0.82;;;29.30;56.40;;;;;;12068300;28;20416;-64
2021/08/01 16:31:22;;;;;;;1.50;0.77;;;27.70;59.70;;;;;;12066942;28;20417;-64
2021/08/01 16:37:10;;;;;;;1.58;0.98;;;28.70;59.30;;;;;;12068030;28;20047;-64
2021/08/01 16:43:05;;;;;;;3.33;0.90;;;27.80;59.00;;;;;;12067636;28;20531;-64
2021/08/01 16:48:57;;;;;;;2.75;0.93;;;26.80;60.40;;;;;;12067781;28;20516;-64
2021/08/01 16:55:01;;;;;;;0.85;0.80;;;26.20;62.40;;;;;;12039971;28;20539;-64
2021/08/01 17:00:56;;;;;;;0.73;0.73;;;27.60;60.20;;;;;;12038256;28;20040;-64
2021/08/01 17:06:50;;;;;;;0.93;0.93;;;30.10;55.70;;;;;;12038184;28;20048;-64
2021/08/01 17:12:39;;;;;;;0.73;0.70;;;33.50;48.70;;;;;;12037447;28;20558;-65
2021/08/01 17:18:26;;;;;;;1.23;0.82;;;33.20;47.40;;;;;;12037169;28;20048;-63
2021/08/01 17:24:13;;;;;;;3.60;1.30;;;30.20;51.50;;;;;;12010207;27;20044;-64
2021/08/01 17:30:02;;;;;;;1.80;1.17;;;28.00;56.30;;;;;;12037979;28;20120;-64
2021/08/01 17:35:55;;;;;;;3.03;1.45;;;26.70;60.40;;;;;;12008444;28;20075;-63
2021/08/01 17:41:44;;;;;;;7.43;2.33;;;25.90;63.60;;;;;;12034585;27;20063;-64
2021/08/01 17:47:33;;;;;;;4.68;2.05;;;26.90;61.90;;;;;;12007980;28;20051;-63
2021/08/01 17:53:20;;;;;;;4.03;1.70;;;26.20;62.80;;;;;;12021519;28;20048;-62
2021/08/01 17:59:09;;;;;;;2.58;1.60;;;25.60;65.00;;;;;;12031745;28;20473;-63
2021/08/01 18:04:57;;;;;;;2.65;1.23;;;25.10;67.60;;;;;;12036159;28;20059;-63
2021/08/01 18:11:17;;;;;;;2.38;1.40;;;24.80;70.80;;;;;;12034644;28;20528;-62
2021/08/01 18:17:14;;;;;;;3.00;1.42;;;24.30;72.50;;;;;;12031160;28;20283;-62
2021/08/01 18:23:07;;;;;;;3.88;1.92;;;23.80;74.00;;;;;;12031337;28;20109;-64
2021/08/01 18:28:56;;;;;;;6.13;3.55;;;23.40;76.30;;;;;;12031982;28;20741;-63
2021/08/01 18:34:44;;;;;;;5.68;2.28;;;23.00;78.00;;;;;;12030454;28;20054;-63
2021/08/01 18:40:33;;;;;;;5.55;2.20;;;23.10;78.60;;;;;;12031049;28;20049;-64
2021/08/01 18:46:21;;;;;;;4.70;1.80;;;23.20;79.10;;;;;;12030195;28;20060;-63
2021/08/01 18:52:10;;;;;;;7.88;1.88;;;23.40;79.30;;;;;;12031436;28;20052;-63
2021/08/01 18:58:01;;;;;;;3.65;2.10;;;23.10;80.40;;;;;;12031731;28;20535;-65
2021/08/01 19:03:50;;;;;;;4.32;2.15;;;23.00;81.40;;;;;;12032406;28;20040;-63
2021/08/01 19:09:38;;;;;;;2.10;1.70;;;23.10;81.80;;;;;;12029522;28;20079;-63
2021/08/01 19:15:26;;;;;;;8.80;1.80;;;23.00;81.70;;;;;;12032369;28;20052;-64
2021/08/01 19:21:17;;;;;;;3.13;2.05;;;22.90;82.60;;;;;;12030457;28;20052;-63
2021/08/01 19:27:05;;;;;;;3.33;1.85;;;22.90;83.00;;;;;;12033024;28;20044;-61
2021/08/01 19:32:55;;;;;;;4.13;2.22;;;22.90;83.10;;;;;;12020069;27;20041;-65
2021/08/01 19:38:43;;;;;;;2.40;1.92;;;22.90;83.60;;;;;;12011256;28;20684;-62
2021/08/01 19:44:31;;;;;;;4.10;2.17;;;22.90;84.00;;;;;;12013465;28;20048;-62
2021/08/01 19:50:20;;;;;;;2.83;2.03;;;23.00;85.20;;;;;;12001135;28;20069;-64
2021/08/01 19:56:07;;;;;;;4.57;1.85;;;22.90;85.50;;;;;;12011158;28;20112;-64
2021/08/01 20:01:54;;;;;;;4.65;2.30;;;22.90;85.90;;;;;;12033237;28;20542;-64
2021/08/01 20:07:45;;;;;;;4.93;2.20;;;22.80;86.20;;;;;;12039436;28;20056;-65
2021/08/01 20:13:32;;;;;;;3.10;2.10;;;22.80;86.80;;;;;;12041162;28;20052;-66
2021/08/01 20:19:19;;;;;;;5.38;2.55;;;22.70;87.10;;;;;;12038664;28;20175;-64
2021/08/01 20:25:23;;;;;;;5.72;2.35;;;22.60;87.30;;;;;;12039845;28;20429;-63
2021/08/01 20:31:10;;;;;;;2.25;1.85;;;22.60;88.00;;;;;;12036510;28;20766;-64
2021/08/01 20:36:57;;;;;;;4.15;1.85;;;22.60;88.10;;;;;;12040440;28;20049;-64
2021/08/01 20:42:45;;;;;;;4.90;1.92;;;22.50;88.10;;;;;;12038553;28;20047;-62
2021/08/01 20:48:32;;;;;;;5.40;2.00;;;22.50;88.30;;;;;;12039777;28;20638;-64
2021/08/01 20:54:19;;;;;;;4.32;1.90;;;22.60;88.40;;;;;;12037887;28;20047;-64
2021/08/01 21:00:08;;;;;;;5.03;1.90;;;22.60;88.40;;;;;;12036486;28;20059;-64
2021/08/01 21:05:55;;;;;;;7.95;1.88;;;22.60;88.50;;;;;;12036854;28;20071;-63
2021/08/01 21:11:42;;;;;;;2.22;1.80;;;22.50;89.20;;;;;;12039877;28;20105;-64
2021/08/01 21:17:30;;;;;;;4.65;1.40;;;22.50;89.50;;;;;;12036526;28;20060;-64
2021/08/01 21:23:17;;;;;;;4.47;1.50;;;22.50;89.10;;;;;;12034548;28;20045;-65
2021/08/01 21:29:04;;;;;;;2.22;1.80;;;22.50;88.90;;;;;;12035154;28;20053;-65
2021/08/01 21:34:53;;;;;;;5.43;1.60;;;22.50;89.50;;;;;;12033298;28;20059;-65
2021/08/01 21:40:40;;;;;;;1.40;1.30;;;22.50;89.90;;;;;;12037678;28;20047;-63
2021/08/01 21:46:27;;;;;;;6.18;2.13;;;22.40;88.70;;;;;;12027908;28;20044;-63
2021/08/01 21:52:15;;;;;;;2.28;1.60;;;22.40;90.00;;;;;;12035049;28;20601;-63
2021/08/01 21:58:02;;;;;;;3.58;1.58;;;22.40;89.40;;;;;;12016454;28;20049;-63
2021/08/01 22:03:52;;;;;;;4.05;1.50;;;22.30;89.00;;;;;;11985250;28;20073;-63
2021/08/01 22:09:42;;;;;;;3.75;1.60;;;22.30;89.90;;;;;;12016703;28;20105;-63
2021/08/01 22:15:29;;;;;;;2.70;1.52;;;22.30;90.00;;;;;;12000558;28;20044;-63
